AXS weather

Altus Quartz Mountain Regional Airport
Altus, Oklahoma, United States

Public forecast

Using degrees Fahrenheit for public forecast. Weather courtesy of forecast.io.

METAR (pilot weather report)

Retrieved 2019/05/22 10:35 UTC (0 seconds ago):

KAXS 221035Z AUTO 18004KT 7SM CLR 16/08 A2966 RMK AO2 T01610076

TAF (pilot weather forecast)

Closest forecast is Altus Air Force Base, 4.0 nm (7.4 km) ESE. Retrieved 2019/05/22 09:06 UTC (1 hour ago):

TAF KLTS 220902Z 2209/2315 VRB06KT 9999 SKC WS008/20045KT QNH2960INS BECMG 2213/2214 20015G27KT 9999 FEW100 510032 QNH2969INS BECMG 2301/2302 17015KT 9999 SCT040 QNH2970INS BECMG 2302/2303 16012KT 9999 BKN015 WS018/18040KT QNH2974INS BECMG 2308/2309 16010G15KT 9999 OVC005 510152 QNH2980INS BECMG 2312/2313 15012G18KT 8000 -SHRA OVC004 510102 QNH2986INS TEMPO 2314/2315 20015G30KT 6000 -TSRA OVC002CB TX30/2221Z TN12/2212Z